Time;durP1;ratioP1;P1;durP2;ratioP2;P2;SDS_P1;SDS_P2;PMS_P1;PMS_P2;Temp;Humidity;BMP_temperature;BMP_pressure;BME280_temperature;BME280_humidity;BME280_pressure;Samples;Min_cycle;Max_cycle;Signal;HPM_P1;HPM_P2
2021/10/17 00:01:25;;;;;;;44.60;30.00;;;;;;;8.33;90.06;97735.73;116514;1182;71482;-70
2021/10/17 00:04:01;;;;;;;43.60;30.20;;;;;;;8.31;90.27;97731.10;116523;1182;68599;-74
2021/10/17 00:06:30;;;;;;;43.70;29.90;;;;;;;8.28;90.36;97731.00;116500;1182;68244;-76
2021/10/17 00:09:00;;;;;;;41.90;30.80;;;;;;;8.29;90.49;97732.33;116559;1182;60344;-76
2021/10/17 00:11:29;;;;;;;41.50;30.70;;;;;;;8.28;90.35;97731.87;116512;1181;60356;-76
2021/10/17 00:13:58;;;;;;;41.40;29.30;;;;;;;8.28;90.31;97732.58;116513;1182;71993;-79
2021/10/17 00:16:29;;;;;;;41.30;30.00;;;;;;;8.29;90.36;97735.64;116502;1182;67648;-80
2021/10/17 00:18:59;;;;;;;37.60;28.10;;;;;;;8.29;90.29;97739.41;116483;1181;68399;-71
2021/10/17 00:21:28;;;;;;;38.10;28.40;;;;;;;8.30;90.50;97736.81;116507;1181;60735;-82
2021/10/17 00:23:57;;;;;;;37.90;27.40;;;;;;;8.29;90.79;97735.09;116529;1180;60266;-78
2021/10/17 00:26:26;;;;;;;37.00;27.50;;;;;;;8.29;90.58;97737.60;116523;1182;73468;-75
2021/10/17 00:28:56;;;;;;;34.30;26.20;;;;;;;8.30;90.54;97739.16;116488;1181;68463;-73
2021/10/17 00:31:26;;;;;;;35.50;26.10;;;;;;;8.30;90.59;97736.02;116386;1182;68527;-76
2021/10/17 00:33:55;;;;;;;30.80;21.80;;;;;;;8.29;90.34;97737.52;116351;1183;60350;-72
2021/10/17 00:36:27;;;;;;;27.20;19.90;;;;;;;8.28;90.06;97733.60;116465;1181;60373;-72
2021/10/17 00:38:57;;;;;;;19.60;15.50;;;;;;;8.28;89.65;97730.46;116340;1182;73554;-79
2021/10/17 00:41:31;;;;;;;22.00;16.10;;;;;;;8.27;89.59;97731.73;116456;1181;68467;-82
2021/10/17 00:44:02;;;;;;;21.70;16.10;;;;;;;8.26;89.22;97734.88;116466;1182;69208;-79
2021/10/17 00:46:31;;;;;;;21.40;16.70;;;;;;;8.26;89.31;97735.59;116521;1181;60375;-77
2021/10/17 00:49:01;;;;;;;26.80;17.00;;;;;;;8.26;89.28;97737.58;116492;1173;60808;-78
2021/10/17 00:51:30;;;;;;;25.00;17.80;;;;;;;8.27;89.26;97736.77;116421;1182;70376;-77
2021/10/17 00:54:00;;;;;;;25.80;18.70;;;;;;;8.27;89.27;97736.45;116527;1182;68331;-72
2021/10/17 00:56:30;;;;;;;26.50;19.00;;;;;;;8.28;89.29;97735.27;116382;1182;69286;-72
2021/10/17 00:59:00;;;;;;;27.80;19.80;;;;;;;8.27;89.50;97733.30;116284;1182;60383;-81
2021/10/17 01:01:29;;;;;;;25.40;19.10;;;;;;;8.27;89.62;97736.23;116542;1182;60336;-78
2021/10/17 01:04:00;;;;;;;;;;;;;;;8.27;89.52;97737.16;116627;1182;71475;-77
2021/10/17 01:06:31;;;;;;;26.40;17.80;;;;;;;8.25;89.39;97737.49;116420;1182;67661;-80
2021/10/17 01:09:00;;;;;;;26.30;20.20;;;;;;;8.25;89.39;97733.79;116529;1182;69235;-81
2021/10/17 01:11:45;;;;;;;27.10;19.70;;;;;;;8.25;89.59;97738.84;116441;1182;60363;-81
2021/10/17 01:14:19;;;;;;;22.60;17.20;;;;;;;8.24;89.81;97736.55;116232;1183;60401;-76
2021/10/17 01:16:52;;;;;;;26.20;18.00;;;;;;;8.24;89.50;97738.13;116383;1184;71986;-81
2021/10/17 01:19:22;;;;;;;21.80;16.00;;;;;;;8.25;89.43;97735.83;116264;1182;68369;-77
2021/10/17 01:21:57;;;;;;;21.20;15.90;;;;;;;8.23;89.33;97735.70;116309;1182;69251;-75
2021/10/17 01:24:27;;;;;;;21.00;15.60;;;;;;;8.23;89.16;97738.33;116451;1182;60356;-71
2021/10/17 01:26:56;;;;;;;20.00;15.40;;;;;;;8.23;89.21;97732.80;116325;1182;60398;-73
2021/10/17 01:29:26;;;;;;;21.80;15.50;;;;;;;8.21;89.27;97737.55;116459;1182;70752;-80
2021/10/17 01:31:57;;;;;;;27.10;17.50;;;;;;;8.19;89.35;97740.34;116513;1182;66707;-76
2021/10/17 01:34:27;;;;;;;25.50;15.90;;;;;;;8.16;89.52;97737.08;116412;1182;69159;-81
2021/10/17 01:36:56;;;;;;;17.00;12.60;;;;;;;8.14;89.53;97739.95;116263;1182;60357;-74
2021/10/17 01:39:28;;;;;;;18.10;13.30;;;;;;;8.10;89.38;97736.55;116585;1181;60380;-79
2021/10/17 01:41:59;;;;;;;19.40;13.20;;;;;;;8.08;89.42;97736.42;116542;1181;71201;-80
2021/10/17 01:44:36;;;;;;;21.80;14.40;;;;;;;8.06;89.41;97735.32;116293;1181;68419;-80
2021/10/17 01:47:07;;;;;;;19.00;12.20;;;;;;;8.05;89.45;97734.93;116466;1181;69382;-73
2021/10/17 01:49:38;;;;;;;16.40;11.10;;;;;;;8.04;89.55;97732.59;116409;1182;60417;-69
2021/10/17 01:52:08;;;;;;;16.00;11.10;;;;;;;8.00;89.64;97730.23;116438;1182;59135;-81
2021/10/17 01:54:42;;;;;;;12.80;9.60;;;;;;;7.98;89.64;97729.55;116540;1182;72191;-82
2021/10/17 01:57:15;;;;;;;17.00;10.00;;;;;;;7.95;89.50;97730.61;116228;1184;68392;-73
2021/10/17 01:59:45;;;;;;;14.80;9.30;;;;;;;7.92;89.62;97732.86;116345;1182;69037;-73
2021/10/17 02:02:38;;;;;;;13.10;9.00;;;;;;;7.91;89.57;97733.98;116392;1183;60363;-80
2021/10/17 02:05:08;;;;;;;12.70;9.70;;;;;;;7.91;89.56;97736.67;116445;1182;60334;-80
2021/10/17 02:07:39;;;;;;;14.10;9.90;;;;;;;7.91;89.54;97731.08;116547;1180;73574;-80
2021/10/17 02:10:11;;;;;;;14.40;9.20;;;;;;;7.89;89.52;97733.20;116677;1180;67605;-81
2021/10/17 02:12:41;;;;;;;;;;;;;;;7.88;89.67;97727.47;116466;1182;68358;-75
2021/10/17 02:15:12;;;;;;;16.00;9.50;;;;;;;7.86;89.57;97724.58;116403;1182;60413;-73
2021/10/17 02:17:44;;;;;;;15.70;9.60;;;;;;;7.84;89.64;97722.89;116557;1181;60426;-75
2021/10/17 02:20:13;;;;;;;12.60;8.80;;;;;;;7.84;89.58;97717.36;116717;1181;71356;-78
2021/10/17 02:22:43;;;;;;;13.50;9.30;;;;;;;7.83;89.68;97719.89;116477;1182;67707;-77
2021/10/17 02:25:14;;;;;;;16.20;9.20;;;;;;;7.80;89.66;97716.16;116685;1180;69015;-81
2021/10/17 02:27:44;;;;;;;;;;;;;;;7.79;89.59;97720.04;116525;1182;60450;-83
2021/10/17 02:30:14;;;;;;;13.10;8.60;;;;;;;7.77;89.83;97716.29;116674;1181;60363;-80
2021/10/17 02:32:54;;;;;;;12.80;8.10;;;;;;;7.77;89.66;97716.84;116485;1173;72198;-78
2021/10/17 02:35:31;;;;;;;13.70;8.30;;;;;;;7.78;89.61;97721.48;116441;1182;68188;-75
2021/10/17 02:38:01;;;;;;;10.90;7.60;;;;;;;7.77;89.56;97718.57;116313;1182;69056;-80
2021/10/17 02:40:34;;;;;;;11.10;8.20;;;;;;;7.78;89.51;97718.48;116482;1182;60342;-83
2021/10/17 02:43:05;;;;;;;11.30;7.90;;;;;;;7.77;89.46;97724.71;116238;1183;60363;-84
2021/10/17 02:45:36;;;;;;;11.30;7.70;;;;;;;7.77;89.49;97718.74;116281;1184;71167;-81
2021/10/17 02:48:06;;;;;;;;;;;;;;;7.77;89.54;97725.52;116315;1182;67649;-83
2021/10/17 02:50:36;;;;;;;9.50;7.50;;;;;;;7.77;89.77;97721.10;116277;1182;69284;-76
2021/10/17 02:53:06;;;;;;;14.10;8.90;;;;;;;7.78;89.74;97722.19;116549;1181;60353;-78
2021/10/17 02:55:37;;;;;;;13.10;8.40;;;;;;;7.77;89.67;97726.38;116320;1182;60357;-77
2021/10/17 02:58:09;;;;;;;12.60;8.00;;;;;;;7.77;89.87;97728.98;116445;1182;72184;-81
2021/10/17 03:00:39;;;;;;;13.70;8.60;;;;;;;7.79;90.23;97723.11;116271;1184;68370;-71
2021/10/17 03:03:08;;;;;;;11.80;8.20;;;;;;;7.80;90.31;97730.73;116251;1182;69239;-82
2021/10/17 03:05:45;;;;;;;14.10;8.30;;;;;;;7.80;90.49;97731.70;116334;1174;60384;-70
2021/10/17 03:08:15;;;;;;;13.30;8.40;;;;;;;7.79;90.53;97730.52;116418;1181;60332;-76
2021/10/17 03:10:45;;;;;;;13.70;8.70;;;;;;;7.79;90.50;97730.98;116494;1182;71485;-75
2021/10/17 03:13:15;;;;;;;15.00;9.00;;;;;;;7.78;90.29;97731.79;116236;1182;67742;-79
2021/10/17 03:15:45;;;;;;;17.60;8.90;;;;;;;7.77;90.21;97731.27;116233;1185;69185;-76
2021/10/17 03:18:18;;;;;;;12.60;7.80;;;;;;;7.77;90.23;97734.34;116390;1182;60361;-74
2021/10/17 03:20:48;;;;;;;11.70;8.00;;;;;;;7.78;90.00;97732.83;116236;1182;60343;-82
2021/10/17 03:23:18;;;;;;;13.40;8.00;;;;;;;7.80;89.73;97733.19;116338;1182;71312;-74
2021/10/17 03:25:50;;;;;;;11.20;7.50;;;;;;;7.81;89.65;97736.16;116483;1181;67437;-78
2021/10/17 03:28:19;;;;;;;11.10;7.50;;;;;;;7.82;89.60;97740.55;116451;1182;69351;-74
2021/10/17 03:30:51;;;;;;;11.50;7.80;;;;;;;7.82;89.53;97738.10;116260;1183;60354;-81
2021/10/17 03:33:22;;;;;;;13.70;8.30;;;;;;;7.82;89.46;97740.95;116447;1182;60483;-78
2021/10/17 03:35:56;;;;;;;13.90;8.30;;;;;;;7.83;89.52;97743.23;116337;1182;70581;-79
2021/10/17 03:38:25;;;;;;;11.20;8.10;;;;;;;7.83;89.57;97743.21;116423;1182;68515;-77
2021/10/17 03:40:55;;;;;;;15.70;8.60;;;;;;;7.84;90.05;97744.38;116458;1182;68301;-81
2021/10/17 03:43:25;;;;;;;12.00;8.40;;;;;;;7.85;90.17;97742.88;116346;1183;60357;-81
2021/10/17 03:45:57;;;;;;;13.50;9.90;;;;;;;7.84;90.11;97742.33;116294;1184;60313;-82
2021/10/17 03:48:29;;;;;;;12.90;8.80;;;;;;;7.84;90.35;97740.45;116490;1182;72184;-74
2021/10/17 03:51:21;;;;;;;13.50;8.90;;;;;;;7.83;90.29;97744.23;116371;1181;68388;-71
2021/10/17 03:53:50;;;;;;;11.40;7.60;;;;;;;7.84;90.49;97745.25;116558;1181;69437;-70
2021/10/17 03:56:21;;;;;;;14.40;8.30;;;;;;;7.83;90.47;97743.13;116470;1182;60414;-70
2021/10/17 03:58:50;;;;;;;10.50;7.80;;;;;;;7.84;90.73;97743.75;116469;1181;60674;-74
2021/10/17 04:01:19;;;;;;;12.60;7.90;;;;;;;7.85;90.68;97745.31;116360;1182;72002;-82
2021/10/17 04:03:50;;;;;;;10.00;7.50;;;;;;;7.86;90.79;97747.27;116462;1181;68243;-77
2021/10/17 04:06:20;;;;;;;11.20;7.70;;;;;;;7.87;90.66;97749.38;116469;1176;68256;-75
2021/10/17 04:08:57;;;;;;;9.50;7.20;;;;;;;7.86;90.66;97749.30;116324;1184;60337;-82
2021/10/17 04:11:26;;;;;;;11.60;7.20;;;;;;;7.86;90.83;97753.42;116329;1182;60353;-78
2021/10/17 04:14:04;;;;;;;11.20;7.00;;;;;;;7.83;90.56;97751.16;116579;1182;71646;-80
2021/10/17 04:16:33;;;;;;;12.00;7.70;;;;;;;7.81;90.45;97755.68;116473;1182;68459;-75
2021/10/17 04:19:04;;;;;;;10.70;7.40;;;;;;;7.81;90.48;97755.55;116483;1181;68284;-77
2021/10/17 04:21:33;;;;;;;10.90;6.80;;;;;;;7.78;90.52;97756.60;116348;1182;60340;-78
2021/10/17 04:24:02;;;;;;;13.10;7.10;;;;;;;7.77;90.58;97758.27;116434;1182;60306;-72
2021/10/17 04:26:33;;;;;;;;;;;;;;;7.75;90.80;97756.41;116403;1182;70874;-70
2021/10/17 04:29:04;;;;;;;14.00;6.70;;;;;;;7.74;91.18;97757.84;116469;1182;67739;-70
2021/10/17 04:31:33;;;;;;;12.70;6.80;;;;;;;7.74;91.03;97762.17;116328;1182;68560;-79
2021/10/17 04:34:02;;;;;;;11.70;6.90;;;;;;;7.75;90.75;97765.32;116431;1182;60293;-77
2021/10/17 04:36:32;;;;;;;8.90;6.70;;;;;;;7.73;90.56;97766.77;116318;1184;60361;-81
2021/10/17 04:39:04;;;;;;;9.70;6.40;;;;;;;7.74;90.48;97766.82;116478;1182;72488;-81
2021/10/17 04:41:33;;;;;;;9.90;6.50;;;;;;;7.73;90.73;97770.77;116313;1182;68357;-74
2021/10/17 04:44:03;;;;;;;8.40;6.50;;;;;;;7.74;90.92;97774.23;116416;1182;68469;-76
2021/10/17 04:46:33;;;;;;;12.30;9.10;;;;;;;7.74;90.48;97774.54;116510;1182;60365;-70
2021/10/17 04:49:03;;;;;;;12.40;9.20;;;;;;;7.74;90.28;97775.50;116429;1182;60371;-76
2021/10/17 04:51:32;;;;;;;13.70;10.20;;;;;;;7.74;90.00;97776.05;116270;1184;72307;-75
2021/10/17 04:54:00;;;;;;;13.50;10.10;;;;;;;7.73;89.88;97777.23;116441;1182;67653;-79
2021/10/17 04:56:30;;;;;;;13.50;9.90;;;;;;;7.73;89.88;97777.79;116359;1182;69286;-76
2021/10/17 04:59:00;;;;;;;14.60;9.90;;;;;;;7.72;89.88;97779.27;116400;1182;60399;-83
2021/10/17 05:01:30;;;;;;;;;;;;;;;7.72;89.85;97776.36;116340;1182;60373;-73
2021/10/17 05:03:59;;;;;;;15.70;9.30;;;;;;;7.72;90.25;97779.90;116412;1182;72116;-75
2021/10/17 05:06:29;;;;;;;17.70;11.30;;;;;;;7.73;90.96;97779.84;116417;1183;69009;-72
2021/10/17 05:09:01;;;;;;;20.40;14.30;;;;;;;7.74;90.57;97775.88;116498;1182;68446;-78
2021/10/17 05:11:31;;;;;;;18.60;14.20;;;;;;;7.74;90.00;97776.05;116447;1182;60793;-75
2021/10/17 05:14:01;;;;;;;18.80;12.80;;;;;;;7.75;90.14;97773.19;116194;1184;60463;-76
2021/10/17 05:16:30;;;;;;;14.90;10.80;;;;;;;7.77;90.27;97778.67;116268;1183;71423;-76
2021/10/17 05:19:00;;;;;;;14.40;10.00;;;;;;;7.80;90.14;97778.86;116345;1182;68365;-79
2021/10/17 05:21:32;;;;;;;15.20;10.20;;;;;;;7.83;90.06;97776.06;116417;1182;69093;-78
2021/10/17 05:24:02;;;;;;;16.20;10.60;;;;;;;7.87;89.83;97775.54;116425;1181;60362;-83
2021/10/17 05:26:31;;;;;;;14.80;9.60;;;;;;;7.91;89.93;97771.88;116274;1184;60430;-80
2021/10/17 05:29:01;;;;;;;15.10;9.40;;;;;;;7.95;89.82;97774.81;116508;1182;72198;-82
2021/10/17 05:31:30;;;;;;;17.00;10.20;;;;;;;8.00;90.43;97776.40;116439;1182;68446;-76
2021/10/17 05:33:59;;;;;;;14.20;9.10;;;;;;;8.06;90.93;97778.27;116356;1182;68501;-78
2021/10/17 05:36:28;;;;;;;18.70;11.10;;;;;;;8.17;91.57;97779.61;116449;1182;60380;-74
2021/10/17 05:38:57;;;;;;;14.80;11.00;;;;;;;8.24;91.13;97781.02;116303;1184;60340;-76
2021/10/17 05:41:27;;;;;;;16.10;10.70;;;;;;;8.28;90.50;97786.65;116439;1182;70450;-81
2021/10/17 05:43:59;;;;;;;15.50;10.90;;;;;;;8.33;90.03;97790.77;116384;1182;67454;-73
2021/10/17 05:46:28;;;;;;;15.00;10.20;;;;;;;8.38;89.74;97792.83;116473;1182;69305;-71
2021/10/17 05:48:58;;;;;;;15.10;11.70;;;;;;;8.41;89.65;97798.05;116493;1182;60415;-72
2021/10/17 05:51:27;;;;;;;18.40;13.10;;;;;;;8.46;89.78;97801.63;116460;1182;60460;-76
2021/10/17 05:53:56;;;;;;;16.10;11.80;;;;;;;8.54;89.79;97803.56;116262;1181;72168;-75
2021/10/17 05:56:25;;;;;;;16.70;11.40;;;;;;;8.59;89.65;97807.41;116407;1182;68421;-73
2021/10/17 05:58:55;;;;;;;;;;;;;;;8.68;89.46;97808.87;116340;1183;69311;-74
2021/10/17 06:01:25;;;;;;;14.00;10.00;;;;;;;8.72;89.15;97810.21;116461;1182;60348;-70
2021/10/17 06:04:05;;;;;;;15.50;9.80;;;;;;;8.80;88.76;97814.19;116447;1182;60340;-81
2021/10/17 06:06:42;;;;;;;13.80;9.60;;;;;;;8.87;88.44;97821.51;116363;1184;71457;-79
2021/10/17 06:09:13;;;;;;;13.30;8.90;;;;;;;8.92;88.09;97818.72;116439;1182;68290;-82
2021/10/17 06:11:42;;;;;;;13.50;8.90;;;;;;;8.99;88.07;97822.02;116249;1183;68436;-76
2021/10/17 06:14:11;;;;;;;14.70;10.80;;;;;;;9.00;87.58;97822.63;116264;1184;60419;-71
2021/10/17 06:16:41;;;;;;;14.80;11.40;;;;;;;9.01;87.45;97822.92;116429;1183;60428;-73
2021/10/17 06:19:12;;;;;;;14.80;10.70;;;;;;;9.04;87.54;97823.42;116485;1182;72318;-84
2021/10/17 06:21:46;;;;;;;14.20;10.60;;;;;;;9.07;87.35;97828.10;116442;1181;68519;-83
2021/10/17 06:24:15;;;;;;;14.20;10.70;;;;;;;9.09;87.17;97827.42;116443;1179;69288;-86
2021/10/17 06:26:45;;;;;;;15.40;12.00;;;;;;;9.10;87.22;97831.68;116393;1182;60377;-83
2021/10/17 06:29:15;;;;;;;21.70;14.00;;;;;;;9.17;87.53;97834.11;116423;1181;60415;-81
2021/10/17 06:31:44;;;;;;;24.20;15.80;;;;;;;9.17;87.06;97831.17;116284;1184;72211;-86
2021/10/17 06:34:14;;;;;;;32.40;19.80;;;;;;;9.19;86.65;97835.02;116462;1182;68520;-85
2021/10/17 06:36:43;;;;;;;29.30;17.10;;;;;;;9.19;86.14;97830.59;116421;1184;69270;-87
2021/10/17 06:39:11;;;;;;;20.60;14.40;;;;;;;9.17;85.17;97837.23;116430;1184;60353;-82
2021/10/17 06:41:41;;;;;;;17.10;13.10;;;;;;;9.18;85.88;97837.47;116376;1182;60371;-79
2021/10/17 06:44:20;;;;;;;18.80;12.20;;;;;;;9.24;85.46;97837.84;116493;1182;70246;-83
2021/10/17 06:46:52;;;;;;;23.40;13.10;;;;;;;9.29;85.48;97841.23;116447;1182;68570;-77
2021/10/17 06:49:22;;;;;;;17.10;11.90;;;;;;;9.32;85.25;97841.48;116294;1182;68688;-86
2021/10/17 06:51:51;;;;;;;19.00;12.60;;;;;;;9.33;85.61;97846.20;116273;1182;60340;-86
2021/10/17 06:54:20;;;;;;;15.50;12.00;;;;;;;9.39;85.78;97850.69;116432;1182;60313;-86
2021/10/17 06:56:49;;;;;;;17.30;11.20;;;;;;;9.43;85.41;97849.12;116328;1184;72223;-87
2021/10/17 06:59:18;;;;;;;14.20;10.80;;;;;;;9.46;84.86;97850.09;116447;1182;68412;-80
2021/10/17 07:01:46;;;;;;;14.10;10.40;;;;;;;9.47;84.51;97853.77;116414;1182;69657;-86
2021/10/17 07:04:16;;;;;;;16.00;10.60;;;;;;;9.51;84.38;97849.91;116309;1183;60395;-86
2021/10/17 07:06:45;;;;;;;14.50;10.30;;;;;;;9.53;84.38;97849.96;116449;1182;60397;-81
2021/10/17 07:09:16;;;;;;;14.90;10.50;;;;;;;9.55;84.45;97850.31;116487;1182;72117;-83
2021/10/17 07:11:49;;;;;;;16.80;10.00;;;;;;;9.63;84.77;97848.80;116499;1182;68321;-85
2021/10/17 07:14:27;;;;;;;16.20;10.40;;;;;;;9.68;84.55;97845.31;116338;1184;68212;-84
2021/10/17 07:17:35;;;;;;;16.90;11.20;;;;;;;9.74;84.19;97840.56;116126;1184;60325;-80
2021/10/17 07:20:12;;;;;;;16.50;10.90;;;;;;;9.77;84.26;97840.89;116135;1183;60401;-85
2021/10/17 07:22:41;;;;;;;17.00;10.00;;;;;;;9.81;84.16;97840.49;116198;1184;72238;-86
2021/10/17 07:25:10;;;;;;;15.10;9.10;;;;;;;9.85;83.98;97843.15;116290;1182;68163;-87
2021/10/17 07:27:39;;;;;;;18.80;9.30;;;;;;;9.90;83.62;97847.84;116425;1182;69294;-88
2021/10/17 07:30:08;;;;;;;13.90;9.20;;;;;;;9.95;83.50;97849.45;116330;1182;60324;-82
2021/10/17 07:32:37;;;;;;;15.00;8.90;;;;;;;10.01;82.98;97851.63;116344;1182;60405;-82
2021/10/17 07:35:07;;;;;;;12.40;9.30;;;;;;;10.07;82.95;97850.11;116462;1182;71411;-85
2021/10/17 07:37:36;;;;;;;13.80;8.90;;;;;;;10.11;82.90;97852.08;116225;1184;66842;-86
2021/10/17 07:40:07;;;;;;;13.80;8.60;;;;;;;10.20;83.00;97852.59;116313;1183;67551;-85
2021/10/17 07:42:39;;;;;;;13.20;9.00;;;;;;;10.28;82.35;97855.30;116229;1184;60353;-84
2021/10/17 07:45:09;;;;;;;13.50;8.60;;;;;;;10.33;81.89;97855.09;116330;1182;60414;-79
2021/10/17 07:47:46;;;;;;;11.70;8.00;;;;;;;10.41;80.52;97850.90;116340;1184;72228;-69
2021/10/17 07:50:15;;;;;;;11.60;7.80;;;;;;;10.52;80.66;97856.27;116219;1184;68423;-74
2021/10/17 07:52:45;;;;;;;14.70;8.00;;;;;;;10.66;80.15;97857.46;116473;1182;69240;-76
2021/10/17 07:55:26;;;;;;;10.90;7.00;;;;;;;10.81;80.52;97852.21;116289;1183;60334;-76
2021/10/17 07:57:59;;;;;;;11.80;7.60;;;;;;;10.88;79.36;97857.00;116357;1184;60411;-81
2021/10/17 08:00:34;;;;;;;12.40;8.30;;;;;;;10.97;78.86;97854.61;116474;1181;72658;-81
2021/10/17 08:03:21;;;;;;;12.10;8.50;;;;;;;11.01;77.63;97855.77;116466;1183;68425;-74
2021/10/17 08:06:05;;;;;;;14.20;7.80;;;;;;;11.00;77.38;97857.85;116476;1182;69621;-73
2021/10/17 08:08:34;;;;;;;12.70;8.90;;;;;;;11.03;77.57;97860.38;116444;1182;60360;-84
2021/10/17 08:11:03;;;;;;;14.20;9.20;;;;;;;11.11;77.18;97862.78;116356;1182;60486;-74
2021/10/17 08:13:32;;;;;;;11.70;7.60;;;;;;;11.14;76.64;97864.46;116203;1184;72317;-79
2021/10/17 08:16:02;;;;;;;13.80;8.00;;;;;;;11.13;76.16;97866.31;116338;1183;68545;-78
2021/10/17 08:18:36;;;;;;;15.30;8.20;;;;;;;11.11;75.73;97863.89;116383;1183;69174;-75
2021/10/17 08:21:05;;;;;;;12.00;8.60;;;;;;;11.12;75.42;97864.74;116430;1182;60420;-86
2021/10/17 08:23:39;;;;;;;10.10;6.90;;;;;;;11.15;75.28;97865.88;116390;1182;60383;-88
2021/10/17 08:26:08;;;;;;;11.30;7.00;;;;;;;11.19;74.87;97870.93;116454;1183;72959;-85
2021/10/17 08:28:37;;;;;;;9.50;7.00;;;;;;;11.16;73.63;97864.27;116418;1181;69259;-83
2021/10/17 08:31:13;;;;;;;11.30;7.40;;;;;;;11.25;74.21;97865.23;116423;1183;67782;-84
2021/10/17 08:33:42;;;;;;;10.80;7.80;;;;;;;11.27;71.86;97865.57;116350;1182;60391;-81
2021/10/17 08:36:12;;;;;;;10.90;7.30;;;;;;;11.35;73.23;97861.51;116461;1182;60375;-84
2021/10/17 08:39:02;;;;;;;13.90;6.90;;;;;;;11.39;73.73;97863.52;116451;1183;71204;-81
2021/10/17 08:41:41;;;;;;;12.30;7.10;;;;;;;11.41;72.94;97863.55;116456;1183;68187;-87
2021/10/17 08:44:17;;;;;;;14.90;6.90;;;;;;;11.41;73.34;97866.81;116445;1182;69011;-79
2021/10/17 08:47:09;;;;;;;10.60;6.40;;;;;;;11.36;71.53;97862.73;116472;1182;60342;-87
2021/10/17 08:49:44;;;;;;;11.30;6.00;;;;;;;11.33;72.17;97861.23;116247;1182;60395;-86
2021/10/17 08:52:13;;;;;;;10.50;6.80;;;;;;;11.35;72.39;97858.98;116318;1182;72198;-85
2021/10/17 08:54:47;;;;;;;13.60;8.60;;;;;;;11.37;71.77;97861.98;116285;1184;67654;-84
2021/10/17 08:57:18;;;;;;;13.40;8.20;;;;;;;11.41;72.00;97854.22;116441;1182;68512;-83
2021/10/17 08:59:50;;;;;;;19.60;10.00;;;;;;;11.43;72.20;97856.60;116407;1182;60383;-74
2021/10/17 09:02:24;;;;;;;15.00;7.60;;;;;;;11.42;72.13;97859.48;116413;1181;60386;-79
2021/10/17 09:05:09;;;;;;;12.00;6.50;;;;;;;11.43;71.51;97858.59;116222;1184;70735;-75
2021/10/17 09:07:57;;;;;;;13.10;7.00;;;;;;;11.47;71.66;97862.59;116242;1184;67425;-71
2021/10/17 09:10:51;;;;;;;10.50;6.60;;;;;;;11.58;71.66;97859.69;116350;1184;69285;-78
2021/10/17 09:13:30;;;;;;;12.60;7.60;;;;;;;11.65;70.71;97857.69;116304;1182;60426;-84
2021/10/17 09:15:59;;;;;;;9.60;6.80;;;;;;;11.74;69.39;97858.96;116423;1184;60299;-81
2021/10/17 09:18:34;;;;;;;10.20;6.50;;;;;;;11.63;69.28;97858.30;116467;1182;72894;-82
2021/10/17 09:21:06;;;;;;;10.90;7.00;;;;;;;11.54;70.17;97859.17;116484;1182;67574;-89
2021/10/17 09:23:40;;;;;;;12.20;7.30;;;;;;;11.65;69.48;97860.63;116390;1183;69296;-78
2021/10/17 09:26:18;;;;;;;11.00;7.40;;;;;;;11.76;69.32;97862.40;116466;1181;60366;-82
2021/10/17 09:28:50;;;;;;;12.40;8.10;;;;;;;11.89;68.67;97862.23;116408;1184;60342;-76
2021/10/17 09:31:21;;;;;;;14.60;8.60;;;;;;;12.01;68.24;97864.59;116539;1182;72227;-80
2021/10/17 09:33:56;;;;;;;14.50;8.30;;;;;;;12.04;67.33;97862.22;116395;1174;68392;-79
2021/10/17 09:36:30;;;;;;;12.90;7.50;;;;;;;12.04;67.51;97863.95;116395;1182;69586;-88
2021/10/17 09:39:33;;;;;;;11.70;7.90;;;;;;;11.99;66.76;97861.08;116250;1184;60372;-86
2021/10/17 09:42:41;;;;;;;10.50;7.10;;;;;;;11.92;66.71;97859.69;116382;1182;60302;-88
2021/10/17 09:45:25;;;;;;;10.70;7.10;;;;;;;12.02;67.41;97859.55;116312;1182;71602;-82
2021/10/17 09:47:54;;;;;;;12.60;7.10;;;;;;;12.17;67.50;97860.18;116526;1182;68543;-88
2021/10/17 09:50:26;;;;;;;12.30;7.30;;;;;;;12.27;67.25;97859.09;116283;1182;69260;-83
2021/10/17 09:53:01;;;;;;;11.50;7.00;;;;;;;12.37;67.02;97857.29;116123;1183;60803;-76
2021/10/17 09:55:38;;;;;;;13.50;7.90;;;;;;;12.41;65.23;97853.75;116464;1182;60309;-74
2021/10/17 09:58:08;;;;;;;12.60;7.80;;;;;;;12.59;65.38;97854.48;116449;1182;71201;-70
2021/10/17 10:00:44;;;;;;;14.60;8.40;;;;;;;12.66;63.93;97850.29;116369;1181;68443;-80
2021/10/17 10:03:15;;;;;;;13.00;7.80;;;;;;;12.84;64.52;97847.60;116409;1182;68565;-71
2021/10/17 10:05:48;;;;;;;12.60;7.60;;;;;;;12.98;64.49;97848.23;116407;1184;60371;-75
2021/10/17 10:08:24;;;;;;;12.30;7.00;;;;;;;13.01;65.41;97847.67;116353;1183;60364;-85
2021/10/17 10:11:03;;;;;;;11.10;7.50;;;;;;;13.26;64.87;97844.25;116258;1182;70326;-83
2021/10/17 10:13:39;;;;;;;13.90;7.80;;;;;;;13.46;63.19;97842.54;116216;1183;67733;-71
2021/10/17 10:16:11;;;;;;;14.30;7.70;;;;;;;13.71;62.66;97842.42;116449;1182;69262;-75
2021/10/17 10:18:41;;;;;;;14.00;7.50;;;;;;;13.83;62.22;97838.65;116271;1184;60346;-83
2021/10/17 10:21:10;;;;;;;11.30;7.00;;;;;;;13.99;61.30;97839.64;116487;1182;60417;-70
2021/10/17 10:23:40;;;;;;;10.00;7.40;;;;;;;14.28;60.03;97841.61;116427;1184;72223;-76
2021/10/17 10:26:11;;;;;;;11.10;7.10;;;;;;;14.61;59.70;97836.45;116485;1182;67542;-79
2021/10/17 10:28:41;;;;;;;15.10;7.60;;;;;;;15.10;58.86;97838.02;116466;1181;68353;-74
2021/10/17 10:31:52;;;;;;;10.10;7.10;;;;;;;15.58;57.19;97834.91;116499;1183;60348;-89
2021/10/17 10:34:22;;;;;;;13.90;7.40;;;;;;;16.09;54.96;97835.88;116469;1182;60359;-87
2021/10/17 10:36:55;;;;;;;12.60;7.90;;;;;;;16.11;53.65;97836.35;116554;1182;71536;-77
2021/10/17 10:39:32;;;;;;;12.90;7.60;;;;;;;16.05;52.95;97837.08;116499;1182;68374;-90
2021/10/17 10:42:15;;;;;;;14.80;7.70;;;;;;;15.78;54.05;97836.39;116417;1182;69048;-88
2021/10/17 10:44:45;;;;;;;13.60;8.20;;;;;;;15.28;53.14;97836.03;116511;1182;60347;-84
2021/10/17 10:47:26;;;;;;;12.50;8.00;;;;;;;14.89;53.92;97833.04;116501;1182;60352;-84
2021/10/17 10:49:56;;;;;;;12.90;8.30;;;;;;;14.41;55.00;97833.70;116419;1183;71420;-88
2021/10/17 10:52:28;;;;;;;;;;;;;;;14.09;56.17;97831.56;116475;1184;66639;-76
2021/10/17 10:55:00;;;;;;;13.70;8.50;;;;;;;13.80;56.65;97833.42;116421;1182;68496;-83
2021/10/17 10:57:50;;;;;;;13.00;8.10;;;;;;;13.42;57.68;97833.39;116473;1182;60347;-84
2021/10/17 11:00:19;;;;;;;13.20;8.70;;;;;;;13.14;59.52;97836.00;116417;1182;60359;-79
2021/10/17 11:03:12;;;;;;;13.10;8.60;;;;;;;12.98;59.49;97839.44;116412;1183;70423;-80
2021/10/17 11:06:07;;;;;;;15.80;10.50;;;;;;;12.68;60.76;97839.69;116439;1184;68437;-81
2021/10/17 11:08:38;;;;;;;13.10;8.80;;;;;;;12.54;61.24;97831.80;116461;1182;68346;-84
2021/10/17 11:11:09;;;;;;;15.50;8.80;;;;;;;12.43;61.37;97830.55;116451;1182;60376;-77
2021/10/17 11:13:43;;;;;;;13.30;8.30;;;;;;;12.33;61.11;97829.69;116597;1184;60349;-88
2021/10/17 11:16:23;;;;;;;13.50;8.90;;;;;;;12.18;61.42;97829.66;116583;1183;72215;-74
2021/10/17 11:18:59;;;;;;;14.30;9.20;;;;;;;12.12;62.73;97823.98;116399;1182;68182;-85
2021/10/17 11:21:33;;;;;;;14.40;9.90;;;;;;;12.13;62.82;97827.28;116373;1183;69056;-82
2021/10/17 11:24:02;;;;;;;18.50;10.50;;;;;;;12.07;62.80;97826.52;116474;1182;60340;-90
2021/10/17 11:26:31;;;;;;;14.40;9.90;;;;;;;11.95;63.09;97824.69;116508;1181;60297;-88
2021/10/17 11:29:00;;;;;;;15.70;9.30;;;;;;;11.97;63.18;97824.90;116303;1183;72211;-86
2021/10/17 11:31:31;;;;;;;16.10;8.90;;;;;;;11.99;63.43;97822.06;116513;1182;67665;-85
2021/10/17 11:34:02;;;;;;;15.70;9.90;;;;;;;12.05;64.21;97821.64;116485;1177;69269;-78
2021/10/17 11:36:32;;;;;;;15.30;9.20;;;;;;;12.21;64.28;97822.14;116454;1181;60366;-71
2021/10/17 11:39:02;;;;;;;15.20;9.60;;;;;;;12.26;63.90;97820.48;116451;1182;60345;-77
2021/10/17 11:41:31;;;;;;;14.40;9.20;;;;;;;12.26;63.13;97817.77;116439;1182;72171;-85
2021/10/17 11:44:01;;;;;;;15.60;10.10;;;;;;;12.46;63.66;97818.15;116467;1183;68420;-81
2021/10/17 11:46:30;;;;;;;14.30;9.70;;;;;;;12.56;63.92;97815.05;116416;1184;69065;-87